Norwegian Breakaway — C6ZJ3 — position and weather

sailwx.info

Track history (hours):
 
Tides and Currents Weather Stations Pressure Air Temp Water Temp Dewpoint Dewpoint Depression Visibility Wind Speed Wind Dir Waves Ship Positions

Norwegian Breakaway

Last reported at 2019-Feb-09 23:18 UTC. Time now 2019-Feb-16 04:23 UTC.
Position N 20°22' W 087°04'.

Length 325 m; draft 8.6 m.

Type: Passenger vessel. MMSI: 311050800.

Date/timePositionNaut miles runAvg speedWind from/ knotsBaromVisibWave heightAir tempDewpointWater temp
2019-Feb-09 23:18N 20°22' W 087°04'619.4
2019-Feb-09 23:00N 20°27' W 087°02'510.5
2019-Feb-09 22:30N 20°31' W 086°58'0 0.5
2019-Feb-09 22:00N 20°31' W 086°57'0 0.0
2019-Feb-09 21:30N 20°31' W 086°57'0 0.0
2019-Feb-09 21:00N 20°31' W 086°57'0 0.0
2019-Feb-09 20:30N 20°31' W 086°57'0 0.0
2019-Feb-09 20:00N 20°31' W 086°57'0 0.0
2019-Feb-09 19:30N 20°31' W 086°57'0 0.0
2019-Feb-09 19:00N 20°31' W 086°57'0 0.0
2019-Feb-09 18:30N 20°31' W 086°57'0 0.0
2019-Feb-09 18:00N 20°31' W 086°57'0 0.0
2019-Feb-09 17:30N 20°31' W 086°57'0 0.0
2019-Feb-09 17:00N 20°31' W 086°57'0 0.0
2019-Feb-09 16:30N 20°31' W 086°57'0 0.0
2019-Feb-09 16:00N 20°31' W 086°57'0 0.0
2019-Feb-09 15:30N 20°31' W 086°57'0 0.0
2019-Feb-09 15:00N 20°31' W 086°57'0 0.0
2019-Feb-09 14:27N 20°31' W 086°57'0 0.0
2019-Feb-09 14:00N 20°31' W 086°57'0 0.0
2019-Feb-09 13:30N 20°31' W 086°57'0 0.0
2019-Feb-09 13:00N 20°31' W 086°57'0 0.2
2019-Feb-09 12:30N 20°31' W 086°57'3 5.4
2019-Feb-09 12:00N 20°33' W 086°57'815.2
2019-Feb-09 11:30N 20°39' W 086°52'57117.1
2019-Feb-08 02:02N 29°44' W 090°00'216.8
2019-Feb-08 01:56N 29°46' W 090°02'716.9
2019-Feb-08 01:30N 29°53' W 089°58'3 5.6
2019-Feb-08 00:57N 29°55' W 089°57'612.9
2019-Feb-08 00:30N 29°57' W 090°03'1 1.0
2019-Feb-07 23:59N 29°57' W 090°04'0 0.0
2019-Feb-07 23:29N 29°57' W 090°04'0 0.0
2019-Feb-07 22:59N 29°57' W 090°04'0 0.0
2019-Feb-07 22:29N 29°57' W 090°04'0 0.0
2019-Feb-07 21:56N 29°57' W 090°04'0 0.0
2019-Feb-07 21:20N 29°57' W 090°04'0 0.0
2019-Feb-07 20:56N 29°57' W 090°04'0 0.0
2019-Feb-07 20:29N 29°57' W 090°04'0 0.0
2019-Feb-07 19:59N 29°57' W 090°04'0 0.0
2019-Feb-07 19:29N 29°57' W 090°04'0 0.0
2019-Feb-07 18:56N 29°57' W 090°04'0 0.0
2019-Feb-07 18:26N 29°57' W 090°04'0 0.0
2019-Feb-07 17:59N 29°57' W 090°04'0 0.0
2019-Feb-07 17:26N 29°57' W 090°04'0 0.0
2019-Feb-07 16:59N 29°57' W 090°04'0 0.0
2019-Feb-07 16:29N 29°57' W 090°04'0 0.0
2019-Feb-07 15:53N 29°57' W 090°04'0 0.0
2019-Feb-07 15:26N 29°57' W 090°04'0 0.0
2019-Feb-07 14:59N 29°57' W 090°04'0 0.0
2019-Feb-07 14:29N 29°57' W 090°04'0 0.0
2019-Feb-07 14:00N 29°57' W 090°04'0 0.0
2019-Feb-07 13:30N 29°57' W 090°04'0 0.0
2019-Feb-07 12:57N 29°57' W 090°04'0 0.0
2019-Feb-07 12:28N 29°57' W 090°04'0 0.0
2019-Feb-07 12:00N 29°57' W 090°04'0 0.0
2019-Feb-07 11:28N 29°57' W 090°04'1 2.7
2019-Feb-07 11:00N 29°58' W 090°03'611.6
2019-Feb-07 10:30N 29°55' W 089°57'3 4.6
2019-Feb-07 09:54N 29°53' W 089°58'512.4
2019-Feb-07 09:30N 29°48' W 090°00'610.2
2019-Feb-07 08:57N 29°43' W 089°59'57016.7
2019-Feb-05 22:44N 20°38' W 086°54'419.4
2019-Feb-05 22:30N 20°34' W 086°57'3 6.1
2019-Feb-05 21:58N 20°31' W 086°57'0 0.0
2019-Feb-05 21:28N 20°31' W 086°57'0 0.0
2019-Feb-05 20:58N 20°31' W 086°57'0 0.0
2019-Feb-05 20:28N 20°31' W 086°57'0 0.0
2019-Feb-05 19:58N 20°31' W 086°57'0 0.0
2019-Feb-05 19:28N 20°31' W 086°57'0 0.0
2019-Feb-05 18:58N 20°31' W 086°57'0 0.0
2019-Feb-05 18:25N 20°31' W 086°57'0 0.0
2019-Feb-05 17:58N 20°31' W 086°57'0 0.0
2019-Feb-05 17:28N 20°31' W 086°57'0 0.0
2019-Feb-05 16:58N 20°31' W 086°57'0 0.0
2019-Feb-05 16:28N 20°31' W 086°57'0 0.0
2019-Feb-05 15:58N 20°31' W 086°57'0 0.0
2019-Feb-05 14:13N 20°31' W 086°57'0 0.0
2019-Feb-05 13:58N 20°31' W 086°57'0 0.0
2019-Feb-05 13:25N 20°31' W 086°57'0 0.0
2019-Feb-05 12:55N 20°31' W 086°57'0 0.0
2019-Feb-05 12:30N 20°31' W 086°57'1 2.9
2019-Feb-05 12:00N 20°30' W 086°59'4 7.7
2019-Feb-05 11:30N 20°28' W 087°02'4 8.9
2019-Feb-05 11:00N 20°24' W 087°04'4 8.2
2019-Feb-05 10:28N 20°20' W 087°05'  
Track history (hours):
 
Tides and Currents Weather Stations Pressure Air Temp Water Temp Dewpoint Dewpoint Depression Visibility Wind Speed Wind Dir Waves Ship Positions

Norwegian Breakaway

Last reported at 2019-Feb-09 23:18 UTC. Time now 2019-Feb-16 04:23 UTC.
Position N 20°22' W 087°04'.

Length 325 m; draft 8.6 m.

Type: Passenger vessel. MMSI: 311050800.

Date/timePositionNaut miles runAvg speedWind from/ knotsBaromVisibWave heightAir tempDewpointWater temp
2019-Feb-09 23:18N 20°22' W 087°04'619.4
2019-Feb-09 23:00N 20°27' W 087°02'510.5
2019-Feb-09 22:30N 20°31' W 086°58'0 0.5
2019-Feb-09 22:00N 20°31' W 086°57'0 0.0
2019-Feb-09 21:30N 20°31' W 086°57'0 0.0
2019-Feb-09 21:00N 20°31' W 086°57'0 0.0
2019-Feb-09 20:30N 20°31' W 086°57'0 0.0
2019-Feb-09 20:00N 20°31' W 086°57'0 0.0
2019-Feb-09 19:30N 20°31' W 086°57'0 0.0
2019-Feb-09 19:00N 20°31' W 086°57'0 0.0
2019-Feb-09 18:30N 20°31' W 086°57'0 0.0
2019-Feb-09 18:00N 20°31' W 086°57'0 0.0
2019-Feb-09 17:30N 20°31' W 086°57'0 0.0
2019-Feb-09 17:00N 20°31' W 086°57'0 0.0
2019-Feb-09 16:30N 20°31' W 086°57'0 0.0
2019-Feb-09 16:00N 20°31' W 086°57'0 0.0
2019-Feb-09 15:30N 20°31' W 086°57'0 0.0
2019-Feb-09 15:00N 20°31' W 086°57'0 0.0
2019-Feb-09 14:27N 20°31' W 086°57'0 0.0
2019-Feb-09 14:00N 20°31' W 086°57'0 0.0
2019-Feb-09 13:30N 20°31' W 086°57'0 0.0
2019-Feb-09 13:00N 20°31' W 086°57'0 0.2
2019-Feb-09 12:30N 20°31' W 086°57'3 5.4
2019-Feb-09 12:00N 20°33' W 086°57'815.2
2019-Feb-09 11:30N 20°39' W 086°52'57117.1
2019-Feb-08 02:02N 29°44' W 090°00'216.8
2019-Feb-08 01:56N 29°46' W 090°02'716.9
2019-Feb-08 01:30N 29°53' W 089°58'3 5.6
2019-Feb-08 00:57N 29°55' W 089°57'612.9
2019-Feb-08 00:30N 29°57' W 090°03'1 1.0
2019-Feb-07 23:59N 29°57' W 090°04'0 0.0
2019-Feb-07 23:29N 29°57' W 090°04'0 0.0
2019-Feb-07 22:59N 29°57' W 090°04'0 0.0
2019-Feb-07 22:29N 29°57' W 090°04'0 0.0
2019-Feb-07 21:56N 29°57' W 090°04'0 0.0
2019-Feb-07 21:20N 29°57' W 090°04'0 0.0
2019-Feb-07 20:56N 29°57' W 090°04'0 0.0
2019-Feb-07 20:29N 29°57' W 090°04'0 0.0
2019-Feb-07 19:59N 29°57' W 090°04'0 0.0
2019-Feb-07 19:29N 29°57' W 090°04'0 0.0
2019-Feb-07 18:56N 29°57' W 090°04'0 0.0
2019-Feb-07 18:26N 29°57' W 090°04'0 0.0
2019-Feb-07 17:59N 29°57' W 090°04'0 0.0
2019-Feb-07 17:26N 29°57' W 090°04'0 0.0
2019-Feb-07 16:59N 29°57' W 090°04'0 0.0
2019-Feb-07 16:29N 29°57' W 090°04'0 0.0
2019-Feb-07 15:53N 29°57' W 090°04'0 0.0
2019-Feb-07 15:26N 29°57' W 090°04'0 0.0
2019-Feb-07 14:59N 29°57' W 090°04'0 0.0
2019-Feb-07 14:29N 29°57' W 090°04'0 0.0
2019-Feb-07 14:00N 29°57' W 090°04'0 0.0
2019-Feb-07 13:30N 29°57' W 090°04'0 0.0
2019-Feb-07 12:57N 29°57' W 090°04'0 0.0
2019-Feb-07 12:28N 29°57' W 090°04'0 0.0
2019-Feb-07 12:00N 29°57' W 090°04'0 0.0
2019-Feb-07 11:28N 29°57' W 090°04'1 2.7
2019-Feb-07 11:00N 29°58' W 090°03'611.6
2019-Feb-07 10:30N 29°55' W 089°57'3 4.6
2019-Feb-07 09:54N 29°53' W 089°58'512.4
2019-Feb-07 09:30N 29°48' W 090°00'610.2
2019-Feb-07 08:57N 29°43' W 089°59'57016.7
2019-Feb-05 22:44N 20°38' W 086°54'419.4
2019-Feb-05 22:30N 20°34' W 086°57'3 6.1
2019-Feb-05 21:58N 20°31' W 086°57'0 0.0
2019-Feb-05 21:28N 20°31' W 086°57'0 0.0
2019-Feb-05 20:58N 20°31' W 086°57'0 0.0
2019-Feb-05 20:28N 20°31' W 086°57'0 0.0
2019-Feb-05 19:58N 20°31' W 086°57'0 0.0
2019-Feb-05 19:28N 20°31' W 086°57'0 0.0
2019-Feb-05 18:58N 20°31' W 086°57'0 0.0
2019-Feb-05 18:25N 20°31' W 086°57'0 0.0
2019-Feb-05 17:58N 20°31' W 086°57'0 0.0
2019-Feb-05 17:28N 20°31' W 086°57'0 0.0
2019-Feb-05 16:58N 20°31' W 086°57'0 0.0
2019-Feb-05 16:28N 20°31' W 086°57'0 0.0
2019-Feb-05 15:58N 20°31' W 086°57'0 0.0
2019-Feb-05 14:13N 20°31' W 086°57'0 0.0
2019-Feb-05 13:58N 20°31' W 086°57'0 0.0
2019-Feb-05 13:25N 20°31' W 086°57'0 0.0
2019-Feb-05 12:55N 20°31' W 086°57'0 0.0
2019-Feb-05 12:30N 20°31' W 086°57'1 2.9
2019-Feb-05 12:00N 20°30' W 086°59'4 7.7
2019-Feb-05 11:30N 20°28' W 087°02'4 8.9
2019-Feb-05 11:00N 20°24' W 087°04'4 8.2
2019-Feb-05 10:28N 20°20' W 087°05'  

Dump ship's entire track history